createdAt,value
2018-11-05T00:00:19.572Z,97039.25
2018-11-05T00:02:49.840Z,97032.43
2018-11-05T00:05:18.442Z,96705.76
2018-11-05T00:07:46.906Z,97026.88
2018-11-05T00:10:15.378Z,97017.08
2018-11-05T00:12:43.887Z,97019.23
2018-11-05T00:15:12.355Z,97019.23
2018-11-05T00:17:40.827Z,97029.44
2018-11-05T00:20:10.507Z,97045.15
2018-11-05T00:22:39.112Z,97049.38
2018-11-05T00:25:09.373Z,97036.62
2018-11-05T00:27:37.863Z,97039.17
2018-11-05T00:30:07.331Z,97028.96
2018-11-05T00:32:35.834Z,97028.56
2018-11-05T00:35:04.525Z,97022.18
2018-11-05T00:37:33.127Z,97023.05
2018-11-05T00:40:01.613Z,97012.84
2018-11-05T00:42:30.328Z,97006.43
2018-11-05T00:44:58.980Z,97013.21
2018-11-05T00:47:27.437Z,97019.59
2018-11-05T00:49:55.911Z,97019.99
2018-11-05T00:52:24.414Z,97027.25
2018-11-05T00:54:52.929Z,97022.58
2018-11-05T00:57:21.403Z,97022.58
2018-11-05T00:59:50.151Z,97030.67
2018-11-05T01:02:18.652Z,97031.08
2018-11-05T01:04:47.125Z,97028.56
2018-11-05T01:07:15.603Z,97021.30
2018-11-05T01:09:44.183Z,97019.63
2018-11-05T01:12:12.654Z,97014.09
2018-11-05T01:14:41.122Z,97005.16
2018-11-05T01:17:09.734Z,97002.59
2018-11-05T01:19:38.198Z,97004.28
2018-11-05T01:22:06.690Z,97008.55
2018-11-05T01:24:35.174Z,97010.25
2018-11-05T01:27:03.646Z,97007.70
2018-11-05T01:29:32.123Z,97011.09
2018-11-05T01:32:00.600Z,97005.55
2018-11-05T01:34:29.073Z,97003.00
2018-11-05T01:36:57.570Z,96994.47
2018-11-05T01:39:26.048Z,96991.52
2018-11-05T01:41:54.584Z,96987.29
2018-11-05T01:44:23.054Z,96986.41
2018-11-05T01:46:51.585Z,96981.31
2018-11-05T01:49:20.058Z,96989.80
2018-11-05T01:51:48.627Z,96992.79
2018-11-05T01:54:17.122Z,96997.50
2018-11-05T01:56:45.587Z,96986.41
2018-11-05T01:59:14.062Z,96983.02
2018-11-05T02:01:42.711Z,96981.31
2018-11-05T02:04:11.195Z,96966.83
2018-11-05T02:06:39.679Z,96962.13
2018-11-05T02:09:09.286Z,96962.57
2018-11-05T02:11:37.760Z,96969.38
2018-11-05T02:14:06.250Z,96973.22
2018-11-05T02:16:34.728Z,96974.48
2018-11-05T02:19:03.206Z,96972.34
2018-11-05T02:21:31.675Z,96979.16
2018-11-05T02:24:00.144Z,96978.72
2018-11-05T02:26:28.605Z,96979.59
2018-11-05T02:28:57.088Z,96954.47
2018-11-05T02:31:25.584Z,96948.97
2018-11-05T02:33:54.077Z,96961.73
2018-11-05T02:36:22.650Z,96956.62
2018-11-05T02:38:51.114Z,96954.07
2018-11-05T02:41:19.591Z,96957.47
2018-11-05T02:43:48.056Z,96957.91
2018-11-05T02:46:16.524Z,96949.38
2018-11-05T02:48:44.995Z,96946.41
2018-11-05T02:51:13.458Z,96954.03
2018-11-05T02:53:41.918Z,96957.43
2018-11-05T02:56:10.386Z,96951.05
2018-11-05T02:58:38.881Z,96950.25
2018-11-05T03:01:07.651Z,96944.27
2018-11-05T03:03:36.128Z,96939.56
2018-11-05T03:06:04.625Z,96938.72
2018-11-05T03:08:33.103Z,96937.89
2018-11-05T03:11:01.674Z,96941.72
2018-11-05T03:13:30.147Z,96945.55
2018-11-05T03:15:58.629Z,96940.44
2018-11-05T03:18:27.099Z,96945.55
2018-11-05T03:20:55.549Z,96948.93
2018-11-05T03:23:24.029Z,96948.09
2018-11-05T03:25:52.528Z,96945.14
2018-11-05T03:28:21.018Z,96951.09
2018-11-05T03:30:49.498Z,96949.81
2018-11-05T03:33:17.966Z,96951.56
2018-11-05T03:35:46.506Z,96945.58
2018-11-05T03:38:14.951Z,96937.92
2018-11-05T03:40:43.470Z,96928.99
2018-11-05T03:43:11.957Z,96932.82
2018-11-05T03:45:40.456Z,96925.61
2018-11-05T03:48:08.962Z,96932.86
2018-11-05T03:50:37.437Z,96932.42
2018-11-05T03:53:06.267Z,96928.59
2018-11-05T03:55:34.814Z,96938.80
2018-11-05T03:58:03.303Z,96932.42
2018-11-05T04:00:31.794Z,96913.28
2018-11-05T04:03:00.298Z,96911.53
2018-11-05T04:05:28.774Z,96908.14
2018-11-05T04:07:57.259Z,96895.38
2018-11-05T04:10:25.733Z,96891.98
2018-11-05T04:12:54.224Z,96898.77
2018-11-05T04:15:22.779Z,96894.10
2018-11-05T04:17:51.205Z,96888.56
2018-11-05T04:20:19.692Z,96894.91
2018-11-05T04:22:48.210Z,96890.28
2018-11-05T04:25:16.727Z,96902.59
2018-11-05T04:27:45.258Z,96903.84
2018-11-05T04:30:14.757Z,96913.64
2018-11-05T04:32:43.554Z,96915.80
2018-11-05T04:35:12.538Z,96906.86
2018-11-05T04:37:41.074Z,96909.41
2018-11-05T04:40:10.733Z,96911.97
2018-11-05T04:42:39.264Z,96915.36
2018-11-05T04:45:09.285Z,96910.25
2018-11-05T04:47:37.803Z,96914.92
2018-11-05T04:50:07.366Z,96912.80
2018-11-05T04:52:35.864Z,96910.25
2018-11-05T04:55:04.374Z,96906.42
2018-11-05T04:57:33.149Z,96897.94
2018-11-05T05:00:05.763Z,96896.66
2018-11-05T05:02:34.283Z,96897.94
2018-11-05T05:05:02.772Z,96879.23
2018-11-05T05:07:31.302Z,96893.27
2018-11-05T05:09:59.812Z,96887.29
2018-11-05T05:12:28.302Z,96889.44
2018-11-05T05:14:56.892Z,96891.98
2018-11-05T05:17:25.403Z,96890.75
2018-11-05T05:19:53.903Z,96894.98
2018-11-05T05:22:22.444Z,96893.70
2018-11-05T05:24:50.929Z,96887.77
2018-11-05T05:27:19.410Z,96886.52
2018-11-05T05:29:47.901Z,96903.51
2018-11-05T05:32:16.395Z,96894.58
2018-11-05T05:34:44.896Z,96896.29
2018-11-05T05:37:13.386Z,96903.11
2018-11-05T05:39:41.879Z,96896.73
2018-11-05T05:42:10.443Z,96895.85
2018-11-05T05:44:38.904Z,96904.38
2018-11-05T05:47:07.421Z,96899.28
2018-11-05T05:49:36.265Z,96903.95
2018-11-05T05:52:04.739Z,96909.05
2018-11-05T05:54:33.227Z,96915.44
2018-11-05T05:57:01.743Z,96905.19
2018-11-05T05:59:30.223Z,96908.21
2018-11-05T06:01:58.699Z,96906.06
2018-11-05T06:04:27.235Z,96910.30
2018-11-05T06:06:55.875Z,96899.24
2018-11-05T06:09:24.375Z,96900.13
2018-11-05T06:11:52.867Z,96897.53
2018-11-05T06:14:21.380Z,96906.06
2018-11-05T06:16:49.975Z,96909.48
2018-11-05T06:19:18.465Z,96907.34
2018-11-05T06:21:46.997Z,96905.23
2018-11-05T06:24:15.498Z,96904.34
2018-11-05T06:26:44.007Z,96896.25
2018-11-05T06:29:12.505Z,96894.58
2018-11-05T06:31:40.991Z,96897.13
2018-11-05T06:34:09.474Z,96899.24
2018-11-05T06:36:38.046Z,96903.51
2018-11-05T06:39:11.243Z,96898.81
2018-11-05T06:41:39.998Z,96903.11
2018-11-05T06:44:08.600Z,96912.44
2018-11-05T06:46:37.111Z,96909.89
2018-11-05T06:49:06.170Z,96926.48
2018-11-05T06:51:34.663Z,96933.27
2018-11-05T06:54:04.023Z,96934.53
2018-11-05T06:56:32.608Z,96935.81
2018-11-05T06:59:01.189Z,96924.33
2018-11-05T07:01:30.622Z,96916.67
2018-11-05T07:03:59.135Z,96905.63
2018-11-05T07:06:27.875Z,96918.78
2018-11-05T07:08:56.359Z,96934.53
2018-11-05T07:11:24.910Z,96931.98
2018-11-05T07:13:53.389Z,96926.88
2018-11-05T07:16:21.857Z,96920.06
2018-11-05T07:18:50.603Z,96944.34
2018-11-05T07:21:19.192Z,96902.64
2018-11-05T07:23:47.697Z,96954.95
2018-11-05T07:26:16.203Z,96910.33
2018-11-05T07:28:44.674Z,96912.00
2018-11-05T07:31:13.203Z,96949.84
2018-11-05T07:33:41.800Z,96923.48
2018-11-05T07:36:10.223Z,96919.22
2018-11-05T07:38:38.707Z,96928.16
2018-11-05T07:41:07.213Z,96921.77
2018-11-05T07:43:35.731Z,96932.42
2018-11-05T07:46:04.219Z,96936.25
2018-11-05T07:48:32.697Z,96918.34
2018-11-05T07:51:01.177Z,96928.99
2018-11-05T07:53:29.670Z,96917.91
2018-11-05T07:55:58.263Z,96908.98
2018-11-05T07:58:26.727Z,96921.73
2018-11-05T08:00:57.352Z,96915.36
2018-11-05T08:03:26.323Z,96911.53
2018-11-05T08:05:55.323Z,96901.28
2018-11-05T08:08:23.881Z,96908.54
2018-11-05T08:10:52.332Z,96910.22
2018-11-05T08:13:20.822Z,96910.22
2018-11-05T08:15:49.324Z,96901.28
2018-11-05T08:18:17.798Z,96901.72
2018-11-05T08:20:46.287Z,96894.91
2018-11-05T08:23:14.767Z,96896.19
2018-11-05T08:25:43.256Z,96888.48
2018-11-05T08:28:11.742Z,96896.14
2018-11-05T08:30:40.213Z,96898.70
2018-11-05T08:33:08.691Z,96904.23
2018-11-05T08:35:37.177Z,96896.14
2018-11-05T08:38:05.790Z,96891.05
2018-11-05T08:40:34.278Z,96885.09
2018-11-05T08:43:02.753Z,96885.94
2018-11-05T08:45:31.514Z,96874.05
2018-11-05T08:48:00.024Z,96870.63
2018-11-05T08:50:28.568Z,96862.13
2018-11-05T08:52:57.012Z,96861.70
2018-11-05T08:55:26.613Z,96862.13
2018-11-05T08:57:55.141Z,96868.91
2018-11-05T09:00:28.976Z,96877.84
2018-11-05T09:02:57.462Z,96888.05
2018-11-05T09:05:25.983Z,96887.18
2018-11-05T09:07:55.235Z,96890.20
2018-11-05T09:10:23.920Z,96878.25
2018-11-05T09:12:52.255Z,96878.68
2018-11-05T09:15:21.596Z,96873.11
2018-11-05T09:17:50.183Z,96874.38
2018-11-05T09:20:19.510Z,96870.55
2018-11-05T09:22:48.783Z,96862.50
2018-11-05T09:25:17.647Z,96871.87
2018-11-05T09:27:46.131Z,96869.31
2018-11-05T09:30:16.580Z,96870.16
2018-11-05T09:32:45.792Z,96876.53
2018-11-05T09:35:14.279Z,96877.38
2018-11-05T09:37:42.782Z,96885.87
2018-11-05T09:40:14.036Z,96879.48
2018-11-05T09:42:43.051Z,96866.73
2018-11-05T09:45:17.032Z,96856.52
2018-11-05T09:47:46.217Z,96861.63
2018-11-05T09:50:15.062Z,96864.61
2018-11-05T09:52:43.525Z,96863.34
2018-11-05T09:55:12.756Z,96862.46
2018-11-05T09:57:41.635Z,96862.06
2018-11-05T10:00:12.870Z,96862.06
2018-11-05T10:02:46.556Z,96863.73
2018-11-05T10:05:15.494Z,96854.80
2018-11-05T10:07:44.271Z,96855.64
2018-11-05T10:10:13.510Z,96862.42
2018-11-05T10:12:42.355Z,96854.77
2018-11-05T10:15:12.106Z,96858.60
2018-11-05T10:17:40.966Z,96866.25
2018-11-05T10:20:13.280Z,96850.07
2018-11-05T10:22:41.921Z,96838.59
2018-11-05T10:25:11.448Z,96856.05
2018-11-05T10:27:39.894Z,96860.75
2018-11-05T10:30:13.665Z,96846.28
2018-11-05T10:32:42.607Z,96841.61
2018-11-05T10:35:11.474Z,96840.77
2018-11-05T10:37:40.269Z,96831.00
2018-11-05T10:40:13.280Z,96832.28
2018-11-05T10:42:42.474Z,96832.72
2018-11-05T10:45:12.382Z,96839.50
2018-11-05T10:47:40.918Z,96838.22
2018-11-05T10:50:10.687Z,96835.27
2018-11-05T10:52:39.170Z,96815.70
2018-11-05T10:55:08.059Z,96812.30
2018-11-05T10:57:36.526Z,96810.16
2018-11-05T11:00:07.544Z,96815.26
2018-11-05T11:02:38.581Z,96806.33
2018-11-05T11:05:07.892Z,96808.44
2018-11-05T11:07:36.460Z,96800.35
2018-11-05T11:10:05.857Z,96796.09
2018-11-05T11:12:34.351Z,96786.28
2018-11-05T11:15:02.856Z,96794.41
2018-11-05T11:17:31.347Z,96790.58
2018-11-05T11:19:59.866Z,96790.58
2018-11-05T11:22:28.339Z,96789.74
2018-11-05T11:24:56.811Z,96790.58
2018-11-05T11:27:25.279Z,96782.92
2018-11-05T11:29:53.747Z,96777.39
2018-11-05T11:32:22.214Z,96774.44
2018-11-05T11:34:50.715Z,96765.47
2018-11-05T11:37:19.289Z,96765.47
2018-11-05T11:39:47.695Z,96760.37
2018-11-05T11:42:16.178Z,96751.84
2018-11-05T11:44:44.788Z,96748.05
2018-11-05T11:47:13.283Z,96748.05
2018-11-05T11:49:41.747Z,96739.55
2018-11-05T11:52:10.236Z,96749.32
2018-11-05T11:54:38.748Z,96738.27
2018-11-05T11:57:07.377Z,96734.48
2018-11-05T11:59:35.882Z,96728.10
2018-11-05T12:02:09.958Z,96728.50
2018-11-05T12:04:38.436Z,96723.37
2018-11-05T12:07:07.294Z,96719.58
2018-11-05T12:09:35.797Z,96722.97
2018-11-05T12:12:04.463Z,96711.05
2018-11-05T12:14:32.977Z,96706.78
2018-11-05T12:17:01.467Z,96701.68
2018-11-05T12:19:29.952Z,96703.83
2018-11-05T12:21:58.450Z,96707.19
2018-11-05T12:24:26.948Z,96700.84
2018-11-05T12:26:55.511Z,96692.75
2018-11-05T12:29:23.973Z,96689.80
2018-11-05T12:31:52.446Z,96693.63
2018-11-05T12:34:20.923Z,96696.58
2018-11-05T12:36:49.508Z,96696.98
2018-11-05T12:39:18.030Z,96702.95
2018-11-05T12:41:46.495Z,96702.09
2018-11-05T12:44:14.963Z,96711.05
2018-11-05T12:46:43.431Z,96703.39
2018-11-05T12:49:12.117Z,96697.92
2018-11-05T12:51:40.586Z,96705.61
2018-11-05T12:54:09.066Z,96701.34
2018-11-05T12:56:37.538Z,96704.73
2018-11-05T12:59:06.040Z,96704.33
2018-11-05T13:01:34.504Z,96703.05
2018-11-05T13:04:03.010Z,96698.35
2018-11-05T13:06:31.502Z,96700.50
2018-11-05T13:09:00.009Z,96700.94
2018-11-05T13:11:28.457Z,96700.53
2018-11-05T13:13:56.937Z,96709.06
2018-11-05T13:16:25.403Z,96703.95
2018-11-05T13:18:54.106Z,96698.39
2018-11-05T13:21:22.610Z,96692.44
2018-11-05T13:23:51.088Z,96691.20
2018-11-05T13:26:19.545Z,96689.45
2018-11-05T13:28:48.030Z,96686.06
2018-11-05T13:31:16.508Z,96683.08
2018-11-05T13:33:45.019Z,96692.87
2018-11-05T13:36:13.487Z,96691.17
2018-11-05T13:38:41.980Z,96686.53
2018-11-05T13:41:10.438Z,96678.91
2018-11-05T13:43:38.931Z,96675.92
2018-11-05T13:46:07.693Z,96675.92
2018-11-05T13:48:36.169Z,96674.64
2018-11-05T13:51:04.514Z,96675.92
2018-11-05T13:53:33.087Z,96671.66
2018-11-05T13:56:01.541Z,96667.39
2018-11-05T13:58:30.214Z,96669.98
2018-11-05T14:00:58.728Z,96669.11
2018-11-05T14:03:27.244Z,96665.72
2018-11-05T14:05:55.833Z,96672.50
2018-11-05T14:08:24.286Z,96676.76
2018-11-05T14:10:52.890Z,96674.20
2018-11-05T14:13:21.342Z,96669.52
2018-11-05T14:15:49.819Z,96669.07
2018-11-05T14:18:18.397Z,96672.03
2018-11-05T14:20:46.786Z,96674.61
2018-11-05T14:23:15.267Z,96673.77
2018-11-05T14:25:43.983Z,96683.58
2018-11-05T14:28:12.709Z,96685.25
2018-11-05T14:30:40.802Z,96679.75
2018-11-05T14:33:09.279Z,96674.17
2018-11-05T14:35:37.744Z,96674.20
2018-11-05T14:38:06.597Z,96677.59
2018-11-05T14:40:35.044Z,96684.38
2018-11-05T14:43:03.538Z,96683.55
2018-11-05T14:45:31.988Z,96674.14
2018-11-05T14:48:00.466Z,96677.16
2018-11-05T14:50:28.944Z,96678.84
2018-11-05T14:52:57.410Z,96681.80
2018-11-05T14:55:25.934Z,96679.25
2018-11-05T14:57:54.418Z,96677.16
2018-11-05T15:00:27.055Z,96674.58
2018-11-05T15:02:56.407Z,96678.41
2018-11-05T15:05:24.877Z,96675.83
2018-11-05T15:07:53.343Z,96671.56
2018-11-05T15:10:24.101Z,96677.94
2018-11-05T15:12:52.597Z,96683.05
2018-11-05T15:15:21.798Z,96683.05
2018-11-05T15:17:50.319Z,96685.59
2018-11-05T15:20:20.247Z,96686.44
2018-11-05T15:22:48.551Z,96689.39
2018-11-05T15:25:17.213Z,96688.12
2018-11-05T15:27:45.691Z,96687.28
2018-11-05T15:30:17.273Z,96680.89
2018-11-05T15:32:46.011Z,96679.63
2018-11-05T15:35:14.747Z,96675.80
2018-11-05T15:37:43.567Z,96674.08
2018-11-05T15:40:14.802Z,96674.05
2018-11-05T15:42:43.294Z,96672.77
2018-11-05T15:45:14.050Z,96674.05
2018-11-05T15:47:43.018Z,96676.17
2018-11-05T15:50:13.948Z,96679.59
2018-11-05T15:52:42.846Z,96687.25
2018-11-05T15:55:11.058Z,96685.50
2018-11-05T15:57:39.924Z,96686.00
2018-11-05T16:00:30.637Z,96685.13
2018-11-05T16:03:00.402Z,96688.59
2018-11-05T16:05:28.877Z,96686.00
2018-11-05T16:07:57.392Z,96679.63
2018-11-05T16:10:26.046Z,96685.13
2018-11-05T16:12:54.730Z,96686.41
2018-11-05T16:15:23.247Z,96695.33
2018-11-05T16:17:51.702Z,96693.19
2018-11-05T16:20:21.526Z,96695.33
2018-11-05T16:22:50.911Z,96696.58
2018-11-05T16:25:19.405Z,96698.73
2018-11-05T16:27:47.903Z,96697.85
2018-11-05T16:30:17.712Z,96704.23
2018-11-05T16:32:46.813Z,96708.94
2018-11-05T16:35:15.302Z,96707.66
2018-11-05T16:37:43.948Z,96710.24
2018-11-05T16:40:14.254Z,96709.77
2018-11-05T16:42:43.288Z,96703.83
2018-11-05T16:45:11.952Z,96692.75
2018-11-05T16:47:41.051Z,96695.30
2018-11-05T16:50:24.718Z,96696.98
2018-11-05T16:52:53.206Z,96701.68
2018-11-05T16:55:21.668Z,96704.63
2018-11-05T16:57:50.192Z,96708.03
2018-11-05T17:00:18.943Z,96710.17
2018-11-05T17:02:48.060Z,96707.63
2018-11-05T17:05:16.382Z,96704.20
2018-11-05T17:07:44.859Z,96709.70
2018-11-05T17:10:14.228Z,96710.14
2018-11-05T17:12:43.273Z,96714.41
2018-11-05T17:15:13.278Z,96707.59
2018-11-05T17:17:42.369Z,96708.00
2018-11-05T17:20:12.641Z,96710.95
2018-11-05T17:22:41.618Z,96719.47
2018-11-05T17:25:10.788Z,96717.33
2018-11-05T17:27:39.487Z,96722.03
2018-11-05T17:30:14.404Z,96714.38
2018-11-05T17:32:43.407Z,96719.47
2018-11-05T17:35:12.222Z,96726.73
2018-11-05T17:37:40.702Z,96729.28
2018-11-05T17:40:11.708Z,96739.89
2018-11-05T17:42:40.402Z,96740.77
2018-11-05T17:45:10.638Z,96734.78
2018-11-05T17:47:39.424Z,96738.61
2018-11-05T17:50:10.763Z,96735.19
2018-11-05T17:52:39.448Z,96735.19
2018-11-05T17:55:08.535Z,96744.98
2018-11-05T17:57:37.011Z,96745.86
2018-11-05T18:00:07.273Z,96744.16
2018-11-05T18:02:35.747Z,96744.59
2018-11-05T18:05:04.217Z,96743.31
2018-11-05T18:07:32.680Z,96739.89
2018-11-05T18:10:01.165Z,96734.41
2018-11-05T18:12:29.640Z,96740.83
2018-11-05T18:14:58.941Z,96736.53
2018-11-05T18:17:27.457Z,96731.42
2018-11-05T18:19:56.640Z,96738.27
2018-11-05T18:22:25.406Z,96736.13
2018-11-05T18:24:53.967Z,96732.70
2018-11-05T18:27:22.459Z,96734.85
2018-11-05T18:29:50.931Z,96735.72
2018-11-05T18:32:20.799Z,96733.14
2018-11-05T18:34:52.013Z,96737.41
2018-11-05T18:37:20.844Z,96742.91
2018-11-05T18:39:49.592Z,96744.22
2018-11-05T18:42:18.058Z,96745.93
2018-11-05T18:44:46.528Z,96741.27
2018-11-05T18:47:14.992Z,96741.23
2018-11-05T18:49:43.465Z,96739.55
2018-11-05T18:52:11.926Z,96744.19
2018-11-05T18:54:40.420Z,96742.10
2018-11-05T18:57:09.156Z,96735.72
2018-11-05T18:59:37.579Z,96738.71
2018-11-05T19:02:06.056Z,96724.02
2018-11-05T19:04:34.586Z,96754.89
2018-11-05T19:07:03.070Z,96756.58
2018-11-05T19:09:31.593Z,96758.28
2018-11-05T19:12:00.055Z,96765.09
2018-11-05T19:14:28.522Z,96762.08
2018-11-05T19:16:56.984Z,96768.48
2018-11-05T19:19:25.453Z,96771.05
2018-11-05T19:21:53.956Z,96766.34
2018-11-05T19:24:22.676Z,96770.17
2018-11-05T19:26:51.031Z,96768.48
2018-11-05T19:29:19.505Z,96769.73
2018-11-05T19:31:47.961Z,96775.30
2018-11-05T19:34:16.444Z,96776.58
2018-11-05T19:36:44.920Z,96774.44
2018-11-05T19:39:14.275Z,96783.84
2018-11-05T19:41:42.998Z,96786.82
2018-11-05T19:44:11.435Z,96785.08
2018-11-05T19:46:40.219Z,96788.91
2018-11-05T19:49:08.708Z,96782.52
2018-11-05T19:51:37.223Z,96785.08
2018-11-05T19:54:05.755Z,96789.34
2018-11-05T19:56:34.263Z,96793.57
2018-11-05T19:59:02.747Z,96798.27
2018-11-05T20:01:31.222Z,96804.22
2018-11-05T20:03:59.706Z,96805.92
2018-11-05T20:06:28.182Z,96807.20
2018-11-05T20:08:56.692Z,96808.44
2018-11-05T20:11:25.147Z,96811.87
2018-11-05T20:13:54.021Z,96803.77
2018-11-05T20:16:22.496Z,96805.48
2018-11-05T20:18:50.964Z,96805.92
2018-11-05T20:21:19.668Z,96811.47
2018-11-05T20:23:48.361Z,96812.30
2018-11-05T20:26:16.819Z,96812.27
2018-11-05T20:28:45.329Z,96813.11
2018-11-05T20:31:13.945Z,96810.52
2018-11-05T20:33:42.423Z,96806.33
2018-11-05T20:36:10.770Z,96808.00
2018-11-05T20:38:39.271Z,96817.81
2018-11-05T20:41:07.854Z,96814.39
2018-11-05T20:43:36.318Z,96813.98
2018-11-05T20:46:04.819Z,96820.77
2018-11-05T20:48:33.300Z,96828.42
2018-11-05T20:51:01.766Z,96823.31
2018-11-05T20:53:30.265Z,96813.95
2018-11-05T20:55:58.730Z,96817.38
2018-11-05T20:58:27.191Z,96819.92
2018-11-05T21:00:55.716Z,96816.94
2018-11-05T21:03:24.168Z,96816.09
2018-11-05T21:05:52.622Z,96817.77
2018-11-05T21:08:21.089Z,96817.38
2018-11-05T21:10:49.595Z,96825.02
2018-11-05T21:13:18.071Z,96824.55
2018-11-05T21:15:46.538Z,96813.55
2018-11-05T21:18:15.017Z,96816.09
2018-11-05T21:20:43.508Z,96813.55
2018-11-05T21:23:12.020Z,96812.27
2018-11-05T21:25:40.504Z,96817.38
2018-11-05T21:28:08.967Z,96813.91
2018-11-05T21:30:37.512Z,96812.23
2018-11-05T21:33:06.255Z,96813.08
2018-11-05T21:35:34.664Z,96813.52
2018-11-05T21:38:03.157Z,96812.67
2018-11-05T21:40:31.660Z,96807.97
2018-11-05T21:43:00.154Z,96814.34
2018-11-05T21:45:28.631Z,96813.52
2018-11-05T21:47:57.152Z,96816.91
2018-11-05T21:50:25.627Z,96812.67
2018-11-05T21:52:54.127Z,96807.13
2018-11-05T21:55:22.592Z,96811.36
2018-11-05T21:57:51.088Z,96817.73
2018-11-05T22:00:22.821Z,96816.86
2018-11-05T22:02:56.568Z,96817.34
2018-11-05T22:05:25.040Z,96813.52
2018-11-05T22:07:53.517Z,96818.61
2018-11-05T22:10:21.986Z,96816.46
2018-11-05T22:12:50.455Z,96816.91
2018-11-05T22:15:19.319Z,96815.22
2018-11-05T22:17:48.486Z,96819.02
2018-11-05T22:20:17.101Z,96815.19
2018-11-05T22:22:46.431Z,96820.30
2018-11-05T22:25:14.898Z,96827.55
2018-11-05T22:27:43.367Z,96827.51
2018-11-05T22:30:12.378Z,96835.60
2018-11-05T22:32:40.834Z,96820.25
2018-11-05T22:35:09.306Z,96831.34
2018-11-05T22:37:38.212Z,96836.41
2018-11-05T22:40:10.152Z,96841.98
2018-11-05T22:42:39.310Z,96844.09
2018-11-05T22:45:08.438Z,96845.80
2018-11-05T22:47:37.742Z,96845.41
2018-11-05T22:50:07.195Z,96535.06
2018-11-05T22:52:36.253Z,96839.83
2018-11-05T22:55:05.030Z,96844.94
2018-11-05T22:57:34.482Z,96842.38
2018-11-05T23:00:03.029Z,96844.53
2018-11-05T23:02:31.438Z,96835.16
2018-11-05T23:04:59.905Z,96847.08
2018-11-05T23:07:28.361Z,96848.76
2018-11-05T23:09:56.831Z,96847.95
2018-11-05T23:12:25.291Z,96852.59
2018-11-05T23:14:53.754Z,96852.55
2018-11-05T23:17:22.248Z,96855.98
2018-11-05T23:19:50.705Z,96852.98
2018-11-05T23:22:19.162Z,96854.27
2018-11-05T23:24:47.625Z,96853.83
2018-11-05T23:27:16.096Z,96849.12
2018-11-05T23:29:44.563Z,96853.79
2018-11-05T23:32:13.016Z,96856.78
2018-11-05T23:34:41.482Z,96852.48
2018-11-05T23:37:09.956Z,96852.08
2018-11-05T23:39:38.446Z,96852.52
2018-11-05T23:42:06.923Z,96852.91
2018-11-05T23:44:35.382Z,96854.63
2018-11-05T23:47:03.863Z,96852.48
2018-11-05T23:49:32.586Z,96850.40
2018-11-05T23:52:01.276Z,96842.27
2018-11-05T23:54:29.755Z,96844.02
2018-11-05T23:56:58.217Z,96850.40
2018-11-05T23:59:26.679Z,96846.61
